首页
METAR-TAF:

METAR-TAF

机场 :

福島機場

郡山, 日本

纬度: 37-24N, 经度: 140-23E, 海拔: 372米

当前天气观测

该预报发布于31分钟前的06:00 UTC
风速11节,风向,在西北北转东北之间变化
温度 32°C
湿度 56%
气压 1011 hPa
能见度10公里或以上
少量云层高于4000英尺
散云

METAR: RJSF 180600Z 35011KT 320V030 9999 FEW040 SCT/// 32/22 Q1011

时间: 15:31 (06:31 UTC)

预报

该预报发布于1小时和26分钟前的05:05 UTC
预报有效从18日的 06点(UTC)到 19日的 12点(UTC)
风速10节,风向
能见度10公里或以上
少量云层高于3000英尺
成为
从 19日的 09点(UTC)到 19日的 12点(UTC)
风速4节,风向东南

TAF: RJSF 180505Z 1806/1912 36010KT 9999 FEW030 BECMG 1909/1912 13004KT

超过4000个机场的气象观测和天气预报(METAR&TAF报告)。

可查询的气象台以黄色和红色小点在地图上表示。

将鼠标移到小点上方,可查看气象台名称。

然后点击查看天气观测和预报。

如需切换地图:点击带黑十字的绿色按钮放大地图;点击带横线的绿色按钮缩小地图;或者点击绿色箭头查看邻近地区的地图。


METAR-TAF: